sensor_id;sensor_type;location;lat;lon;timestamp;P1;durP1;ratioP1;P2;durP2;ratioP2
75864;SDS011;64510;46.704;38.274;2023-04-07T00:00:56;1.38;;;0.98;;
75864;SDS011;64510;46.704;38.274;2023-04-07T00:03:22;1.88;;;1.33;;
75864;SDS011;64510;46.704;38.274;2023-04-07T00:05:48;2.40;;;0.93;;
75864;SDS011;64510;46.704;38.274;2023-04-07T00:08:13;1.05;;;1.00;;
75864;SDS011;64510;46.704;38.274;2023-04-07T00:10:39;2.63;;;1.02;;
75864;SDS011;64510;46.704;38.274;2023-04-07T00:13:06;1.58;;;0.55;;
75864;SDS011;64510;46.704;38.274;2023-04-07T00:15:31;1.35;;;1.25;;
75864;SDS011;64510;46.704;38.274;2023-04-07T00:17:57;4.28;;;1.45;;
75864;SDS011;64510;46.704;38.274;2023-04-07T00:20:23;2.08;;;1.70;;
75864;SDS011;64510;46.704;38.274;2023-04-07T00:22:49;3.40;;;1.65;;
75864;SDS011;64510;46.704;38.274;2023-04-07T00:25:15;3.22;;;2.08;;
75864;SDS011;64510;46.704;38.274;2023-04-07T00:27:41;2.20;;;1.33;;
75864;SDS011;64510;46.704;38.274;2023-04-07T00:30:07;1.40;;;1.15;;
75864;SDS011;64510;46.704;38.274;2023-04-07T00:32:33;2.13;;;1.60;;
75864;SDS011;64510;46.704;38.274;2023-04-07T00:34:59;4.78;;;2.03;;
75864;SDS011;64510;46.704;38.274;2023-04-07T00:37:25;1.95;;;1.75;;
75864;SDS011;64510;46.704;38.274;2023-04-07T00:39:51;1.85;;;1.40;;
75864;SDS011;64510;46.704;38.274;2023-04-07T00:42:17;6.28;;;1.88;;
75864;SDS011;64510;46.704;38.274;2023-04-07T00:44:43;3.05;;;1.95;;
75864;SDS011;64510;46.704;38.274;2023-04-07T00:47:10;5.30;;;2.08;;
75864;SDS011;64510;46.704;38.274;2023-04-07T00:49:36;3.53;;;1.90;;
75864;SDS011;64510;46.704;38.274;2023-04-07T00:52:03;1.88;;;1.35;;
75864;SDS011;64510;46.704;38.274;2023-04-07T00:54:31;3.50;;;2.65;;
75864;SDS011;64510;46.704;38.274;2023-04-07T00:56:57;2.53;;;2.25;;
75864;SDS011;64510;46.704;38.274;2023-04-07T00:59:23;2.95;;;1.65;;
75864;SDS011;64510;46.704;38.274;2023-04-07T01:02:13;3.40;;;2.15;;
75864;SDS011;64510;46.704;38.274;2023-04-07T01:04:44;7.18;;;2.10;;
75864;SDS011;64510;46.704;38.274;2023-04-07T01:07:28;3.38;;;1.70;;
75864;SDS011;64510;46.704;38.274;2023-04-07T01:16:35;2.50;;;1.70;;
75864;SDS011;64510;46.704;38.274;2023-04-07T01:22:02;3.47;;;2.33;;
75864;SDS011;64510;46.704;38.274;2023-04-07T01:27:42;1.98;;;1.80;;
75864;SDS011;64510;46.704;38.274;2023-04-07T01:30:22;2.80;;;2.58;;
75864;SDS011;64510;46.704;38.274;2023-04-07T01:32:51;5.13;;;2.42;;
75864;SDS011;64510;46.704;38.274;2023-04-07T01:35:19;4.72;;;2.92;;
75864;SDS011;64510;46.704;38.274;2023-04-07T01:37:47;4.53;;;3.75;;
75864;SDS011;64510;46.704;38.274;2023-04-07T01:40:15;4.75;;;2.92;;
75864;SDS011;64510;46.704;38.274;2023-04-07T01:42:41;4.53;;;3.05;;
75864;SDS011;64510;46.704;38.274;2023-04-07T01:45:09;5.03;;;3.65;;
75864;SDS011;64510;46.704;38.274;2023-04-07T01:47:35;7.35;;;3.33;;
75864;SDS011;64510;46.704;38.274;2023-04-07T01:50:03;3.72;;;2.60;;
75864;SDS011;64510;46.704;38.274;2023-04-07T01:52:30;8.80;;;2.60;;
75864;SDS011;64510;46.704;38.274;2023-04-07T01:54:58;4.88;;;3.30;;
75864;SDS011;64510;46.704;38.274;2023-04-07T01:57:25;5.68;;;3.55;;
75864;SDS011;64510;46.704;38.274;2023-04-07T01:59:57;8.35;;;3.10;;
75864;SDS011;64510;46.704;38.274;2023-04-07T02:02:25;7.32;;;3.38;;
75864;SDS011;64510;46.704;38.274;2023-04-07T02:04:57;7.00;;;4.22;;
75864;SDS011;64510;46.704;38.274;2023-04-07T02:09:57;5.95;;;3.15;;
75864;SDS011;64510;46.704;38.274;2023-04-07T02:12:25;2.67;;;2.47;;
75864;SDS011;64510;46.704;38.274;2023-04-07T02:15:05;4.35;;;3.40;;
75864;SDS011;64510;46.704;38.274;2023-04-07T02:17:33;5.63;;;3.05;;
75864;SDS011;64510;46.704;38.274;2023-04-07T02:20:03;5.25;;;3.00;;
75864;SDS011;64510;46.704;38.274;2023-04-07T02:22:32;3.97;;;3.28;;
75864;SDS011;64510;46.704;38.274;2023-04-07T02:24:58;3.88;;;2.75;;
75864;SDS011;64510;46.704;38.274;2023-04-07T02:27:25;8.68;;;3.75;;
75864;SDS011;64510;46.704;38.274;2023-04-07T02:29:51;4.97;;;3.10;;
75864;SDS011;64510;46.704;38.274;2023-04-07T02:32:21;3.00;;;2.38;;
75864;SDS011;64510;46.704;38.274;2023-04-07T02:34:47;5.22;;;3.95;;
75864;SDS011;64510;46.704;38.274;2023-04-07T02:37:13;6.78;;;3.50;;
75864;SDS011;64510;46.704;38.274;2023-04-07T02:39:39;7.75;;;3.85;;
75864;SDS011;64510;46.704;38.274;2023-04-07T02:42:05;4.60;;;3.20;;
75864;SDS011;64510;46.704;38.274;2023-04-07T02:44:30;11.00;;;4.10;;
75864;SDS011;64510;46.704;38.274;2023-04-07T02:46:56;6.25;;;4.68;;
75864;SDS011;64510;46.704;38.274;2023-04-07T02:49:22;6.55;;;4.40;;
75864;SDS011;64510;46.704;38.274;2023-04-07T02:51:48;10.27;;;4.80;;
75864;SDS011;64510;46.704;38.274;2023-04-07T02:54:14;7.72;;;3.60;;
75864;SDS011;64510;46.704;38.274;2023-04-07T02:56:41;9.30;;;4.15;;
75864;SDS011;64510;46.704;38.274;2023-04-07T02:59:07;6.85;;;3.40;;
75864;SDS011;64510;46.704;38.274;2023-04-07T03:01:38;4.78;;;3.33;;
75864;SDS011;64510;46.704;38.274;2023-04-07T03:04:05;4.15;;;2.88;;
75864;SDS011;64510;46.704;38.274;2023-04-07T03:06:31;5.22;;;3.63;;
75864;SDS011;64510;46.704;38.274;2023-04-07T03:09:03;7.25;;;3.40;;
75864;SDS011;64510;46.704;38.274;2023-04-07T03:11:29;4.20;;;3.33;;
75864;SDS011;64510;46.704;38.274;2023-04-07T03:13:58;8.48;;;4.20;;
75864;SDS011;64510;46.704;38.274;2023-04-07T03:16:25;4.53;;;3.47;;
75864;SDS011;64510;46.704;38.274;2023-04-07T03:18:59;8.02;;;3.88;;
75864;SDS011;64510;46.704;38.274;2023-04-07T03:21:25;6.43;;;3.58;;
75864;SDS011;64510;46.704;38.274;2023-04-07T03:23:53;3.92;;;2.80;;
75864;SDS011;64510;46.704;38.274;2023-04-07T03:26:19;10.85;;;3.08;;
75864;SDS011;64510;46.704;38.274;2023-04-07T03:28:46;5.90;;;4.40;;
75864;SDS011;64510;46.704;38.274;2023-04-07T03:31:13;10.70;;;5.03;;
75864;SDS011;64510;46.704;38.274;2023-04-07T03:33:39;3.88;;;2.78;;
75864;SDS011;64510;46.704;38.274;2023-04-07T03:36:05;4.32;;;3.80;;
75864;SDS011;64510;46.704;38.274;2023-04-07T03:38:33;6.95;;;2.72;;
75864;SDS011;64510;46.704;38.274;2023-04-07T03:41:02;8.45;;;3.70;;
75864;SDS011;64510;46.704;38.274;2023-04-07T03:43:28;8.30;;;4.18;;
75864;SDS011;64510;46.704;38.274;2023-04-07T03:45:54;5.45;;;3.30;;
75864;SDS011;64510;46.704;38.274;2023-04-07T03:48:21;11.25;;;4.20;;
75864;SDS011;64510;46.704;38.274;2023-04-07T03:50:59;5.82;;;4.13;;
75864;SDS011;64510;46.704;38.274;2023-04-07T03:53:26;9.00;;;4.78;;
75864;SDS011;64510;46.704;38.274;2023-04-07T03:55:52;10.82;;;4.78;;
75864;SDS011;64510;46.704;38.274;2023-04-07T03:58:31;6.28;;;3.67;;
75864;SDS011;64510;46.704;38.274;2023-04-07T04:00:57;7.13;;;4.03;;
75864;SDS011;64510;46.704;38.274;2023-04-07T04:03:23;5.45;;;2.88;;
75864;SDS011;64510;46.704;38.274;2023-04-07T04:06:01;12.20;;;4.72;;
75864;SDS011;64510;46.704;38.274;2023-04-07T04:08:30;7.28;;;4.72;;
75864;SDS011;64510;46.704;38.274;2023-04-07T04:10:56;8.18;;;4.45;;
75864;SDS011;64510;46.704;38.274;2023-04-07T04:13:25;10.93;;;5.25;;
75864;SDS011;64510;46.704;38.274;2023-04-07T04:15:53;10.52;;;5.45;;
75864;SDS011;64510;46.704;38.274;2023-04-07T04:18:19;5.47;;;4.28;;
75864;SDS011;64510;46.704;38.274;2023-04-07T04:20:46;13.32;;;6.30;;
75864;SDS011;64510;46.704;38.274;2023-04-07T04:23:14;8.07;;;4.47;;
75864;SDS011;64510;46.704;38.274;2023-04-07T04:25:41;15.38;;;6.00;;
75864;SDS011;64510;46.704;38.274;2023-04-07T04:28:10;10.45;;;5.88;;
75864;SDS011;64510;46.704;38.274;2023-04-07T04:30:36;7.55;;;4.65;;
75864;SDS011;64510;46.704;38.274;2023-04-07T04:33:02;13.40;;;5.03;;
75864;SDS011;64510;46.704;38.274;2023-04-07T04:35:36;13.15;;;5.10;;
75864;SDS011;64510;46.704;38.274;2023-04-07T04:38:09;12.15;;;5.10;;
75864;SDS011;64510;46.704;38.274;2023-04-07T04:40:38;9.00;;;5.10;;
75864;SDS011;64510;46.704;38.274;2023-04-07T04:43:05;7.72;;;4.28;;
75864;SDS011;64510;46.704;38.274;2023-04-07T04:45:34;10.95;;;5.43;;
75864;SDS011;64510;46.704;38.274;2023-04-07T04:48:01;7.35;;;4.40;;
75864;SDS011;64510;46.704;38.274;2023-04-07T04:50:28;9.00;;;4.68;;
75864;SDS011;64510;46.704;38.274;2023-04-07T04:52:54;11.02;;;5.07;;
75864;SDS011;64510;46.704;38.274;2023-04-07T04:55:22;7.68;;;3.45;;
75864;SDS011;64510;46.704;38.274;2023-04-07T04:57:49;9.85;;;5.20;;
75864;SDS011;64510;46.704;38.274;2023-04-07T05:00:21;7.10;;;5.00;;
75864;SDS011;64510;46.704;38.274;2023-04-07T05:02:53;4.30;;;3.90;;
75864;SDS011;64510;46.704;38.274;2023-04-07T05:05:19;10.43;;;5.00;;
75864;SDS011;64510;46.704;38.274;2023-04-07T05:07:48;9.15;;;5.15;;
75864;SDS011;64510;46.704;38.274;2023-04-07T05:10:15;9.63;;;5.07;;
75864;SDS011;64510;46.704;38.274;2023-04-07T05:12:47;6.82;;;4.72;;
75864;SDS011;64510;46.704;38.274;2023-04-07T05:15:13;7.35;;;5.28;;
75864;SDS011;64510;46.704;38.274;2023-04-07T05:17:42;8.95;;;5.85;;
75864;SDS011;64510;46.704;38.274;2023-04-07T05:20:11;7.47;;;4.28;;
75864;SDS011;64510;46.704;38.274;2023-04-07T05:22:39;8.27;;;3.15;;
75864;SDS011;64510;46.704;38.274;2023-04-07T05:25:07;6.85;;;4.53;;
75864;SDS011;64510;46.704;38.274;2023-04-07T05:27:34;13.75;;;5.68;;
75864;SDS011;64510;46.704;38.274;2023-04-07T05:30:06;8.73;;;4.40;;
75864;SDS011;64510;46.704;38.274;2023-04-07T05:32:34;11.15;;;5.78;;
75864;SDS011;64510;46.704;38.274;2023-04-07T05:35:06;6.20;;;4.55;;
75864;SDS011;64510;46.704;38.274;2023-04-07T05:37:35;6.07;;;4.07;;
75864;SDS011;64510;46.704;38.274;2023-04-07T05:40:03;6.53;;;4.85;;
75864;SDS011;64510;46.704;38.274;2023-04-07T05:42:30;6.30;;;4.30;;
75864;SDS011;64510;46.704;38.274;2023-04-07T05:44:56;2.58;;;2.38;;
75864;SDS011;64510;46.704;38.274;2023-04-07T05:47:25;9.75;;;4.93;;
75864;SDS011;64510;46.704;38.274;2023-04-07T05:49:51;11.55;;;5.22;;
75864;SDS011;64510;46.704;38.274;2023-04-07T05:52:18;11.02;;;5.18;;
75864;SDS011;64510;46.704;38.274;2023-04-07T05:54:51;5.25;;;3.47;;
75864;SDS011;64510;46.704;38.274;2023-04-07T05:57:18;11.88;;;4.38;;
75864;SDS011;64510;46.704;38.274;2023-04-07T05:59:46;8.77;;;4.15;;
75864;SDS011;64510;46.704;38.274;2023-04-07T06:02:12;8.20;;;4.90;;
75864;SDS011;64510;46.704;38.274;2023-04-07T06:04:38;3.88;;;2.97;;
75864;SDS011;64510;46.704;38.274;2023-04-07T06:07:05;4.38;;;2.42;;
75864;SDS011;64510;46.704;38.274;2023-04-07T06:09:31;7.53;;;4.78;;
75864;SDS011;64510;46.704;38.274;2023-04-07T06:11:57;11.45;;;5.88;;
75864;SDS011;64510;46.704;38.274;2023-04-07T06:14:24;8.23;;;5.57;;
75864;SDS011;64510;46.704;38.274;2023-04-07T06:16:50;8.52;;;4.78;;
75864;SDS011;64510;46.704;38.274;2023-04-07T06:19:16;9.10;;;4.65;;
75864;SDS011;64510;46.704;38.274;2023-04-07T06:21:42;10.63;;;5.43;;
75864;SDS011;64510;46.704;38.274;2023-04-07T06:24:08;10.77;;;5.72;;
75864;SDS011;64510;46.704;38.274;2023-04-07T06:26:33;10.65;;;5.43;;
75864;SDS011;64510;46.704;38.274;2023-04-07T06:29:00;9.82;;;5.82;;
75864;SDS011;64510;46.704;38.274;2023-04-07T06:31:27;17.55;;;5.00;;
75864;SDS011;64510;46.704;38.274;2023-04-07T06:33:53;10.88;;;6.25;;
75864;SDS011;64510;46.704;38.274;2023-04-07T06:36:19;8.80;;;4.75;;
75864;SDS011;64510;46.704;38.274;2023-04-07T06:38:45;9.15;;;5.47;;
75864;SDS011;64510;46.704;38.274;2023-04-07T06:41:11;10.18;;;5.45;;
75864;SDS011;64510;46.704;38.274;2023-04-07T06:43:50;8.70;;;5.20;;
75864;SDS011;64510;46.704;38.274;2023-04-07T06:46:16;12.07;;;5.65;;
75864;SDS011;64510;46.704;38.274;2023-04-07T06:48:42;8.43;;;4.20;;
75864;SDS011;64510;46.704;38.274;2023-04-07T06:51:08;11.55;;;5.55;;
75864;SDS011;64510;46.704;38.274;2023-04-07T06:53:34;7.53;;;4.32;;
75864;SDS011;64510;46.704;38.274;2023-04-07T06:56:04;12.30;;;4.75;;
75864;SDS011;64510;46.704;38.274;2023-04-07T06:58:35;6.45;;;4.03;;
75864;SDS011;64510;46.704;38.274;2023-04-07T07:01:01;9.43;;;5.20;;
75864;SDS011;64510;46.704;38.274;2023-04-07T07:03:30;9.55;;;4.88;;
75864;SDS011;64510;46.704;38.274;2023-04-07T07:05:59;7.60;;;4.85;;
75864;SDS011;64510;46.704;38.274;2023-04-07T07:08:26;12.38;;;5.30;;
75864;SDS011;64510;46.704;38.274;2023-04-07T07:10:53;8.57;;;5.25;;
75864;SDS011;64510;46.704;38.274;2023-04-07T07:13:21;10.65;;;5.65;;
75864;SDS011;64510;46.704;38.274;2023-04-07T07:15:49;6.50;;;4.95;;
75864;SDS011;64510;46.704;38.274;2023-04-07T07:18:16;9.82;;;5.50;;
75864;SDS011;64510;46.704;38.274;2023-04-07T07:20:42;8.23;;;5.80;;
75864;SDS011;64510;46.704;38.274;2023-04-07T07:23:08;10.60;;;5.35;;
75864;SDS011;64510;46.704;38.274;2023-04-07T07:25:34;7.93;;;4.88;;
75864;SDS011;64510;46.704;38.274;2023-04-07T07:28:00;3.80;;;3.15;;
75864;SDS011;64510;46.704;38.274;2023-04-07T07:30:26;9.75;;;5.72;;
75864;SDS011;64510;46.704;38.274;2023-04-07T07:32:52;9.93;;;5.80;;
75864;SDS011;64510;46.704;38.274;2023-04-07T07:35:19;10.55;;;3.75;;
75864;SDS011;64510;46.704;38.274;2023-04-07T07:37:45;10.80;;;5.32;;
75864;SDS011;64510;46.704;38.274;2023-04-07T07:40:11;8.75;;;4.85;;
75864;SDS011;64510;46.704;38.274;2023-04-07T07:42:37;13.05;;;5.88;;
75864;SDS011;64510;46.704;38.274;2023-04-07T07:45:04;13.27;;;5.05;;
75864;SDS011;64510;46.704;38.274;2023-04-07T07:47:30;13.32;;;5.65;;
75864;SDS011;64510;46.704;38.274;2023-04-07T07:49:56;13.18;;;5.93;;
75864;SDS011;64510;46.704;38.274;2023-04-07T07:52:22;13.68;;;6.55;;
75864;SDS011;64510;46.704;38.274;2023-04-07T07:54:49;8.25;;;5.22;;
75864;SDS011;64510;46.704;38.274;2023-04-07T07:57:15;11.57;;;6.43;;
75864;SDS011;64510;46.704;38.274;2023-04-07T07:59:41;12.88;;;5.30;;
75864;SDS011;64510;46.704;38.274;2023-04-07T08:02:08;11.55;;;5.88;;
75864;SDS011;64510;46.704;38.274;2023-04-07T08:04:35;12.27;;;5.93;;
75864;SDS011;64510;46.704;38.274;2023-04-07T08:07:01;7.65;;;4.32;;
75864;SDS011;64510;46.704;38.274;2023-04-07T08:09:28;15.57;;;5.95;;
75864;SDS011;64510;46.704;38.274;2023-04-07T08:11:56;9.02;;;5.32;;
75864;SDS011;64510;46.704;38.274;2023-04-07T08:14:22;11.90;;;5.72;;
75864;SDS011;64510;46.704;38.274;2023-04-07T08:16:48;10.25;;;5.55;;
75864;SDS011;64510;46.704;38.274;2023-04-07T08:19:14;8.70;;;4.63;;
75864;SDS011;64510;46.704;38.274;2023-04-07T08:21:40;11.10;;;6.68;;
75864;SDS011;64510;46.704;38.274;2023-04-07T08:24:06;15.18;;;6.03;;
75864;SDS011;64510;46.704;38.274;2023-04-07T08:26:32;14.68;;;6.88;;
75864;SDS011;64510;46.704;38.274;2023-04-07T08:28:57;8.77;;;6.13;;
75864;SDS011;64510;46.704;38.274;2023-04-07T08:31:23;7.28;;;4.10;;
75864;SDS011;64510;46.704;38.274;2023-04-07T08:33:50;12.95;;;5.82;;
75864;SDS011;64510;46.704;38.274;2023-04-07T08:36:25;9.48;;;5.00;;
75864;SDS011;64510;46.704;38.274;2023-04-07T08:38:52;12.60;;;6.03;;
75864;SDS011;64510;46.704;38.274;2023-04-07T08:41:26;12.45;;;5.25;;
75864;SDS011;64510;46.704;38.274;2023-04-07T08:43:57;9.57;;;5.65;;
75864;SDS011;64510;46.704;38.274;2023-04-07T08:46:25;13.70;;;5.80;;
75864;SDS011;64510;46.704;38.274;2023-04-07T08:48:54;14.45;;;6.07;;
75864;SDS011;64510;46.704;38.274;2023-04-07T08:51:31;4.28;;;2.30;;
75864;SDS011;64510;46.704;38.274;2023-04-07T08:54:09;10.57;;;5.18;;
75864;SDS011;64510;46.704;38.274;2023-04-07T08:56:36;8.82;;;5.25;;
75864;SDS011;64510;46.704;38.274;2023-04-07T08:59:06;12.13;;;5.30;;
75864;SDS011;64510;46.704;38.274;2023-04-07T09:01:33;22.48;;;4.63;;
75864;SDS011;64510;46.704;38.274;2023-04-07T09:04:01;13.90;;;5.75;;
75864;SDS011;64510;46.704;38.274;2023-04-07T09:06:30;8.55;;;3.80;;
75864;SDS011;64510;46.704;38.274;2023-04-07T09:08:57;4.60;;;2.97;;
75864;SDS011;64510;46.704;38.274;2023-04-07T09:11:24;7.63;;;4.35;;
75864;SDS011;64510;46.704;38.274;2023-04-07T09:13:51;7.55;;;4.28;;
75864;SDS011;64510;46.704;38.274;2023-04-07T09:16:17;7.00;;;3.38;;
75864;SDS011;64510;46.704;38.274;2023-04-07T09:18:43;5.13;;;3.42;;
75864;SDS011;64510;46.704;38.274;2023-04-07T09:21:09;4.75;;;2.78;;
75864;SDS011;64510;46.704;38.274;2023-04-07T09:23:36;12.68;;;4.78;;
75864;SDS011;64510;46.704;38.274;2023-04-07T09:28:52;10.13;;;3.47;;
75864;SDS011;64510;46.704;38.274;2023-04-07T09:31:42;9.85;;;4.72;;
75864;SDS011;64510;46.704;38.274;2023-04-07T09:36:54;7.20;;;3.30;;
75864;SDS011;64510;46.704;38.274;2023-04-07T09:39:21;9.23;;;5.05;;
75864;SDS011;64510;46.704;38.274;2023-04-07T09:41:48;6.03;;;4.05;;
75864;SDS011;64510;46.704;38.274;2023-04-07T09:44:14;9.38;;;5.00;;
75864;SDS011;64510;46.704;38.274;2023-04-07T09:49:18;15.35;;;4.10;;
75864;SDS011;64510;46.704;38.274;2023-04-07T09:51:55;9.15;;;4.63;;
75864;SDS011;64510;46.704;38.274;2023-04-07T09:54:35;6.57;;;3.15;;
75864;SDS011;64510;46.704;38.274;2023-04-07T09:57:03;8.23;;;3.87;;
75864;SDS011;64510;46.704;38.274;2023-04-07T09:59:31;10.80;;;5.07;;
75864;SDS011;64510;46.704;38.274;2023-04-07T10:01:58;8.52;;;4.70;;
75864;SDS011;64510;46.704;38.274;2023-04-07T10:04:25;4.78;;;2.25;;
75864;SDS011;64510;46.704;38.274;2023-04-07T10:06:52;9.05;;;4.18;;
75864;SDS011;64510;46.704;38.274;2023-04-07T10:09:25;8.23;;;4.55;;
75864;SDS011;64510;46.704;38.274;2023-04-07T10:11:52;9.45;;;4.22;;
75864;SDS011;64510;46.704;38.274;2023-04-07T10:14:20;7.25;;;3.55;;
75864;SDS011;64510;46.704;38.274;2023-04-07T10:16:47;9.82;;;5.65;;
75864;SDS011;64510;46.704;38.274;2023-04-07T10:19:14;8.30;;;4.65;;
75864;SDS011;64510;46.704;38.274;2023-04-07T10:21:41;12.68;;;5.43;;
75864;SDS011;64510;46.704;38.274;2023-04-07T10:27:03;11.98;;;4.30;;
75864;SDS011;64510;46.704;38.274;2023-04-07T10:29:34;4.10;;;2.90;;
75864;SDS011;64510;46.704;38.274;2023-04-07T10:32:02;15.30;;;4.47;;
75864;SDS011;64510;46.704;38.274;2023-04-07T10:37:15;8.43;;;4.75;;
75864;SDS011;64510;46.704;38.274;2023-04-07T10:45:16;8.25;;;4.65;;
75864;SDS011;64510;46.704;38.274;2023-04-07T10:48:17;14.05;;;6.60;;
75864;SDS011;64510;46.704;38.274;2023-04-07T10:50:44;16.35;;;7.15;;
75864;SDS011;64510;46.704;38.274;2023-04-07T10:53:14;7.32;;;4.03;;
75864;SDS011;64510;46.704;38.274;2023-04-07T10:55:43;11.82;;;6.38;;
75864;SDS011;64510;46.704;38.274;2023-04-07T11:03:28;7.57;;;6.25;;
75864;SDS011;64510;46.704;38.274;2023-04-07T11:06:02;11.45;;;5.68;;
75864;SDS011;64510;46.704;38.274;2023-04-07T11:08:36;11.98;;;6.60;;
75864;SDS011;64510;46.704;38.274;2023-04-07T11:11:02;14.25;;;5.93;;
75864;SDS011;64510;46.704;38.274;2023-04-07T11:16:06;7.22;;;5.22;;
75864;SDS011;64510;46.704;38.274;2023-04-07T11:18:33;9.30;;;5.80;;
75864;SDS011;64510;46.704;38.274;2023-04-07T11:21:00;6.70;;;4.07;;
75864;SDS011;64510;46.704;38.274;2023-04-07T11:23:27;8.27;;;5.15;;
75864;SDS011;64510;46.704;38.274;2023-04-07T11:25:59;13.40;;;5.25;;
75864;SDS011;64510;46.704;38.274;2023-04-07T11:28:26;11.73;;;6.10;;
75864;SDS011;64510;46.704;38.274;2023-04-07T11:30:53;11.13;;;7.03;;
75864;SDS011;64510;46.704;38.274;2023-04-07T11:33:21;12.82;;;5.93;;
75864;SDS011;64510;46.704;38.274;2023-04-07T11:38:20;15.05;;;6.55;;
75864;SDS011;64510;46.704;38.274;2023-04-07T11:40:47;6.80;;;4.75;;
75864;SDS011;64510;46.704;38.274;2023-04-07T11:43:17;10.93;;;6.75;;
75864;SDS011;64510;46.704;38.274;2023-04-07T11:45:45;12.13;;;5.18;;
75864;SDS011;64510;46.704;38.274;2023-04-07T11:48:30;11.82;;;5.82;;
75864;SDS011;64510;46.704;38.274;2023-04-07T11:50:58;9.02;;;5.00;;
75864;SDS011;64510;46.704;38.274;2023-04-07T11:53:34;16.80;;;6.60;;
75864;SDS011;64510;46.704;38.274;2023-04-07T11:56:03;9.32;;;4.43;;
75864;SDS011;64510;46.704;38.274;2023-04-07T11:58:31;10.35;;;4.57;;
75864;SDS011;64510;46.704;38.274;2023-04-07T12:00:58;6.07;;;4.43;;
75864;SDS011;64510;46.704;38.274;2023-04-07T12:03:29;10.05;;;6.57;;
75864;SDS011;64510;46.704;38.274;2023-04-07T12:05:55;8.25;;;4.57;;
75864;SDS011;64510;46.704;38.274;2023-04-07T12:08:26;18.98;;;7.18;;
75864;SDS011;64510;46.704;38.274;2023-04-07T12:11:04;9.07;;;4.00;;
75864;SDS011;64510;46.704;38.274;2023-04-07T12:13:30;12.70;;;6.07;;
75864;SDS011;64510;46.704;38.274;2023-04-07T12:15:59;11.65;;;5.40;;
75864;SDS011;64510;46.704;38.274;2023-04-07T12:18:26;13.75;;;6.55;;
75864;SDS011;64510;46.704;38.274;2023-04-07T12:20:52;11.00;;;6.13;;
75864;SDS011;64510;46.704;38.274;2023-04-07T12:23:18;12.98;;;6.53;;
75864;SDS011;64510;46.704;38.274;2023-04-07T12:25:44;10.52;;;6.50;;
75864;SDS011;64510;46.704;38.274;2023-04-07T12:28:10;11.82;;;7.15;;
75864;SDS011;64510;46.704;38.274;2023-04-07T12:30:36;13.55;;;7.50;;
75864;SDS011;64510;46.704;38.274;2023-04-07T12:33:02;11.32;;;5.82;;
75864;SDS011;64510;46.704;38.274;2023-04-07T12:35:28;9.13;;;5.80;;
75864;SDS011;64510;46.704;38.274;2023-04-07T12:37:55;10.27;;;5.97;;
75864;SDS011;64510;46.704;38.274;2023-04-07T12:40:21;10.23;;;5.60;;
75864;SDS011;64510;46.704;38.274;2023-04-07T12:42:48;15.25;;;8.20;;
75864;SDS011;64510;46.704;38.274;2023-04-07T12:45:14;17.02;;;7.22;;
75864;SDS011;64510;46.704;38.274;2023-04-07T12:47:40;8.48;;;5.43;;
75864;SDS011;64510;46.704;38.274;2023-04-07T12:50:06;18.90;;;7.72;;
75864;SDS011;64510;46.704;38.274;2023-04-07T12:52:33;10.98;;;5.35;;
75864;SDS011;64510;46.704;38.274;2023-04-07T12:54:58;18.42;;;7.20;;
75864;SDS011;64510;46.704;38.274;2023-04-07T12:57:24;12.23;;;6.22;;
75864;SDS011;64510;46.704;38.274;2023-04-07T12:59:50;19.15;;;6.93;;
75864;SDS011;64510;46.704;38.274;2023-04-07T13:02:17;13.77;;;6.75;;
75864;SDS011;64510;46.704;38.274;2023-04-07T13:04:43;10.45;;;6.25;;
75864;SDS011;64510;46.704;38.274;2023-04-07T13:07:13;11.68;;;7.05;;
75864;SDS011;64510;46.704;38.274;2023-04-07T13:09:40;9.77;;;5.55;;
75864;SDS011;64510;46.704;38.274;2023-04-07T13:12:10;10.18;;;5.50;;
75864;SDS011;64510;46.704;38.274;2023-04-07T13:14:40;3.38;;;1.75;;
75864;SDS011;64510;46.704;38.274;2023-04-07T13:17:06;7.37;;;4.60;;
75864;SDS011;64510;46.704;38.274;2023-04-07T13:19:33;5.53;;;3.70;;
75864;SDS011;64510;46.704;38.274;2023-04-07T13:21:59;8.75;;;3.70;;
75864;SDS011;64510;46.704;38.274;2023-04-07T13:24:25;6.10;;;3.55;;
75864;SDS011;64510;46.704;38.274;2023-04-07T13:26:51;9.13;;;5.25;;
75864;SDS011;64510;46.704;38.274;2023-04-07T13:29:17;8.40;;;4.18;;
75864;SDS011;64510;46.704;38.274;2023-04-07T13:31:44;12.52;;;4.50;;
75864;SDS011;64510;46.704;38.274;2023-04-07T13:34:11;3.13;;;2.67;;
75864;SDS011;64510;46.704;38.274;2023-04-07T13:36:38;5.05;;;2.92;;
75864;SDS011;64510;46.704;38.274;2023-04-07T13:39:04;7.90;;;3.63;;
75864;SDS011;64510;46.704;38.274;2023-04-07T13:41:30;7.28;;;3.30;;
75864;SDS011;64510;46.704;38.274;2023-04-07T13:43:56;4.80;;;2.65;;
75864;SDS011;64510;46.704;38.274;2023-04-07T13:46:25;11.07;;;3.15;;
75864;SDS011;64510;46.704;38.274;2023-04-07T13:48:51;5.75;;;3.28;;
75864;SDS011;64510;46.704;38.274;2023-04-07T13:51:17;8.27;;;2.85;;
75864;SDS011;64510;46.704;38.274;2023-04-07T13:53:44;6.68;;;3.22;;
75864;SDS011;64510;46.704;38.274;2023-04-07T13:56:10;6.75;;;1.88;;
75864;SDS011;64510;46.704;38.274;2023-04-07T13:58:36;3.75;;;2.88;;
75864;SDS011;64510;46.704;38.274;2023-04-07T14:01:02;3.83;;;2.80;;
75864;SDS011;64510;46.704;38.274;2023-04-07T14:03:29;7.22;;;3.33;;
75864;SDS011;64510;46.704;38.274;2023-04-07T14:05:55;4.40;;;3.53;;
75864;SDS011;64510;46.704;38.274;2023-04-07T14:08:26;3.05;;;2.20;;
75864;SDS011;64510;46.704;38.274;2023-04-07T14:10:52;5.53;;;3.10;;
75864;SDS011;64510;46.704;38.274;2023-04-07T14:13:18;7.15;;;3.42;;
75864;SDS011;64510;46.704;38.274;2023-04-07T14:15:44;6.07;;;3.30;;
75864;SDS011;64510;46.704;38.274;2023-04-07T14:18:10;10.30;;;3.45;;
75864;SDS011;64510;46.704;38.274;2023-04-07T14:20:36;13.85;;;4.15;;
75864;SDS011;64510;46.704;38.274;2023-04-07T14:23:02;10.00;;;3.45;;
75864;SDS011;64510;46.704;38.274;2023-04-07T14:25:28;4.07;;;2.10;;
75864;SDS011;64510;46.704;38.274;2023-04-07T14:27:54;6.63;;;2.47;;
75864;SDS011;64510;46.704;38.274;2023-04-07T14:30:19;10.13;;;3.75;;
75864;SDS011;64510;46.704;38.274;2023-04-07T14:32:45;11.43;;;3.03;;
75864;SDS011;64510;46.704;38.274;2023-04-07T14:35:11;5.85;;;2.95;;
75864;SDS011;64510;46.704;38.274;2023-04-07T14:37:37;14.95;;;2.63;;
75864;SDS011;64510;46.704;38.274;2023-04-07T14:40:04;2.88;;;2.17;;
75864;SDS011;64510;46.704;38.274;2023-04-07T14:42:30;6.10;;;2.30;;
75864;SDS011;64510;46.704;38.274;2023-04-07T14:45:00;7.47;;;1.95;;
75864;SDS011;64510;46.704;38.274;2023-04-07T14:47:26;5.85;;;3.20;;
75864;SDS011;64510;46.704;38.274;2023-04-07T14:49:52;14.18;;;2.85;;
75864;SDS011;64510;46.704;38.274;2023-04-07T14:52:18;9.30;;;3.40;;
75864;SDS011;64510;46.704;38.274;2023-04-07T14:54:45;9.90;;;3.08;;
75864;SDS011;64510;46.704;38.274;2023-04-07T14:57:11;4.70;;;3.35;;
75864;SDS011;64510;46.704;38.274;2023-04-07T14:59:37;3.33;;;2.67;;
75864;SDS011;64510;46.704;38.274;2023-04-07T15:02:03;5.82;;;2.90;;
75864;SDS011;64510;46.704;38.274;2023-04-07T15:04:29;12.05;;;3.05;;
75864;SDS011;64510;46.704;38.274;2023-04-07T15:06:56;3.83;;;2.72;;
75864;SDS011;64510;46.704;38.274;2023-04-07T15:09:22;4.97;;;2.85;;
75864;SDS011;64510;46.704;38.274;2023-04-07T15:11:47;8.52;;;2.53;;
75864;SDS011;64510;46.704;38.274;2023-04-07T15:14:13;4.35;;;2.72;;
75864;SDS011;64510;46.704;38.274;2023-04-07T15:16:39;9.25;;;3.60;;
75864;SDS011;64510;46.704;38.274;2023-04-07T15:19:05;8.23;;;3.45;;